createdAt,value
2022-09-23T00:00:17.558Z,79.92
2022-09-23T00:01:03.175Z,84.89
2022-09-23T00:01:47.611Z,83.89
2022-09-23T00:02:33.117Z,84.89
2022-09-23T00:03:18.084Z,84.89
2022-09-23T00:04:02.940Z,95.88
2022-09-23T00:04:47.892Z,98.85
2022-09-23T00:05:33.065Z,84.85
2022-09-23T00:06:18.668Z,89.84
2022-09-23T00:07:03.371Z,84.87
2022-09-23T00:07:48.422Z,87.87
2022-09-23T00:08:33.329Z,78.88
2022-09-23T00:09:18.332Z,78.88
2022-09-23T00:10:04.409Z,78.88
2022-09-23T00:10:48.457Z,71.89
2022-09-23T00:11:33.813Z,106.84
2022-09-23T00:12:18.763Z,78.88
2022-09-23T00:13:03.609Z,71.89
2022-09-23T00:13:48.436Z,81.88
2022-09-23T00:14:33.726Z,81.88
2022-09-23T00:15:18.797Z,81.88
2022-09-23T00:16:03.761Z,81.88
2022-09-23T00:16:48.744Z,81.88
2022-09-23T00:17:33.949Z,81.88
2022-09-23T00:18:19.008Z,81.88
2022-09-23T00:19:07.182Z,81.88
2022-09-23T00:19:49.226Z,81.88
2022-09-23T00:20:34.281Z,81.88
2022-09-23T00:21:19.279Z,81.88
2022-09-23T00:22:04.395Z,81.88
2022-09-23T00:22:49.349Z,81.88
2022-09-23T00:23:34.507Z,81.88
2022-09-23T00:24:19.458Z,81.88
2022-09-23T00:25:05.057Z,81.88
2022-09-23T00:25:49.673Z,81.88
2022-09-23T00:26:34.633Z,81.88
2022-09-23T00:27:19.383Z,110.86
2022-09-23T00:28:04.754Z,110.86
2022-09-23T00:28:51.536Z,110.86
2022-09-23T00:29:35.551Z,110.86
2022-09-23T00:30:20.425Z,110.86
2022-09-23T00:31:05.581Z,110.86
2022-09-23T00:31:50.432Z,110.86
2022-09-23T00:32:35.388Z,110.86
2022-09-23T00:33:20.445Z,110.86
2022-09-23T00:34:05.630Z,110.86
2022-09-23T00:34:50.355Z,26.12
2022-09-23T00:35:35.620Z,74.84
2022-09-23T00:36:20.464Z,74.84
2022-09-23T00:37:05.032Z,91.88
2022-09-23T00:37:50.268Z,67.95
2022-09-23T00:38:35.943Z,67.95
2022-09-23T00:39:20.486Z,113.80
2022-09-23T00:40:06.139Z,113.80
2022-09-23T00:40:51.004Z,113.80
2022-09-23T00:41:36.497Z,113.80
2022-09-23T00:42:20.609Z,113.80
2022-09-23T00:43:05.660Z,82.90
2022-09-23T00:43:50.630Z,85.89
2022-09-23T00:44:35.806Z,88.84
2022-09-23T00:45:20.739Z,85.89
2022-09-23T00:46:05.861Z,104.82
2022-09-23T00:46:50.952Z,104.82
2022-09-23T00:47:36.933Z,104.82
2022-09-23T00:48:20.965Z,80.90
2022-09-23T00:49:06.422Z,80.90
2022-09-23T00:49:51.174Z,100.85
2022-09-23T00:50:36.539Z,100.85
2022-09-23T00:51:21.288Z,85.89
2022-09-23T00:52:06.236Z,93.86
2022-09-23T00:52:53.136Z,17.99
2022-09-23T00:53:36.484Z,84.85
2022-09-23T00:54:21.102Z,83.89
2022-09-23T00:55:06.265Z,40.94
2022-09-23T00:55:51.250Z,92.88
2022-09-23T00:56:36.596Z,108.81
2022-09-23T00:57:21.323Z,104.87
2022-09-23T00:58:06.811Z,92.88
2022-09-23T00:58:51.760Z,103.85
2022-09-23T00:59:36.731Z,88.87
2022-09-23T01:00:21.550Z,92.81
2022-09-23T01:01:07.113Z,89.87
2022-09-23T01:01:51.874Z,89.87
2022-09-23T01:02:37.157Z,89.89
2022-09-23T01:03:21.982Z,88.89
2022-09-23T01:04:06.726Z,89.89
2022-09-23T01:04:52.111Z,92.88
2022-09-23T01:05:37.262Z,88.89
2022-09-23T01:06:22.105Z,86.89
2022-09-23T01:07:07.165Z,90.89
2022-09-23T01:07:52.702Z,93.83
2022-09-23T01:08:37.605Z,88.89
2022-09-23T01:09:22.237Z,84.89
2022-09-23T01:10:07.849Z,90.89
2022-09-23T01:10:52.462Z,89.89
2022-09-23T01:11:37.805Z,82.85
2022-09-23T01:12:22.454Z,92.88
2022-09-23T01:13:07.511Z,91.84
2022-09-23T01:13:52.465Z,86.89
2022-09-23T01:14:37.427Z,80.90
2022-09-23T01:15:22.882Z,82.90
2022-09-23T01:16:07.358Z,82.90
2022-09-23T01:16:52.450Z,70.91
2022-09-23T01:17:37.434Z,63.40
2022-09-23T01:18:22.604Z,63.40
2022-09-23T01:19:07.871Z,63.40
2022-09-23T01:19:52.737Z,63.40
2022-09-23T01:20:39.012Z,63.40
2022-09-23T01:21:23.029Z,63.40
2022-09-23T01:22:08.189Z,63.40
2022-09-23T01:22:54.222Z,63.40
2022-09-23T01:23:38.831Z,63.40
2022-09-23T01:24:23.259Z,63.40
2022-09-23T01:25:08.305Z,63.40
2022-09-23T01:25:53.985Z,63.40
2022-09-23T01:26:39.752Z,63.40
2022-09-23T01:27:24.816Z,63.40
2022-09-23T01:28:09.390Z,63.40
2022-09-23T01:28:53.722Z,63.40
2022-09-23T01:29:38.548Z,51.36
2022-09-23T01:30:23.708Z,75.90
2022-09-23T01:31:08.932Z,85.89
2022-09-23T01:31:53.824Z,71.91
2022-09-23T01:32:39.008Z,78.90
2022-09-23T01:33:24.038Z,80.90
2022-09-23T01:34:09.215Z,74.91
2022-09-23T01:34:54.249Z,81.90
2022-09-23T01:35:39.236Z,83.83
2022-09-23T01:36:24.267Z,87.89
2022-09-23T01:37:09.422Z,83.89
2022-09-23T01:37:54.576Z,81.90
2022-09-23T01:38:39.737Z,81.90
2022-09-23T01:39:24.487Z,82.90
2022-09-23T01:40:09.489Z,88.84
2022-09-23T01:40:54.803Z,88.84
2022-09-23T01:41:39.144Z,76.86
2022-09-23T01:42:24.409Z,90.89
2022-09-23T01:43:09.764Z,88.89
2022-09-23T01:43:54.722Z,99.87
2022-09-23T01:44:39.982Z,99.87
2022-09-23T01:45:24.734Z,87.89
2022-09-23T01:46:10.097Z,87.89
2022-09-23T01:46:54.946Z,87.89
2022-09-23T01:47:40.222Z,80.90
2022-09-23T01:48:25.114Z,79.90
2022-09-23T01:49:10.447Z,79.90
2022-09-23T01:49:55.483Z,84.76
2022-09-23T01:50:40.437Z,82.85
2022-09-23T01:51:25.285Z,82.85
2022-09-23T01:52:10.342Z,79.88
2022-09-23T01:52:55.406Z,78.90
2022-09-23T01:53:40.681Z,84.89
2022-09-23T01:54:25.672Z,82.85
2022-09-23T01:55:10.675Z,81.90
2022-09-23T01:55:55.623Z,73.92
2022-09-23T01:56:40.992Z,73.92
2022-09-23T01:57:26.766Z,73.92
2022-09-23T01:58:10.934Z,70.93
2022-09-23T01:58:56.157Z,70.93
2022-09-23T01:59:41.013Z,82.88
2022-09-23T02:00:26.168Z,98.90
2022-09-23T02:01:10.887Z,89.91
2022-09-23T02:01:56.031Z,88.91
2022-09-23T02:02:40.766Z,88.91
2022-09-23T02:03:25.999Z,90.90
2022-09-23T02:04:10.959Z,88.91
2022-09-23T02:04:55.992Z,87.91
2022-09-23T02:05:41.050Z,87.91
2022-09-23T02:06:26.110Z,85.89
2022-09-23T02:07:10.851Z,82.85
2022-09-23T02:07:56.423Z,91.90
2022-09-23T02:08:41.377Z,87.85
2022-09-23T02:09:26.233Z,91.90
2022-09-23T02:10:11.394Z,87.91
2022-09-23T02:10:56.559Z,88.89
2022-09-23T02:11:41.503Z,82.85
2022-09-23T02:12:26.457Z,82.90
2022-09-23T02:13:11.682Z,83.89
2022-09-23T02:13:56.666Z,87.89
2022-09-23T02:14:41.830Z,78.90
2022-09-23T02:15:26.991Z,75.90
2022-09-23T02:16:12.004Z,90.89
2022-09-23T02:16:57.072Z,93.88
2022-09-23T02:17:42.169Z,87.82
2022-09-23T02:18:27.990Z,88.89
2022-09-23T02:19:11.755Z,90.84
2022-09-23T02:19:57.592Z,83.88
2022-09-23T02:20:42.185Z,82.76
2022-09-23T02:21:27.557Z,80.83
2022-09-23T02:22:12.395Z,81.77
2022-09-23T02:22:57.345Z,85.82
2022-09-23T02:23:42.343Z,97.80
2022-09-23T02:24:27.480Z,97.80
2022-09-23T02:25:12.628Z,87.79
2022-09-23T02:25:57.899Z,87.79
2022-09-23T02:26:42.726Z,94.80
2022-09-23T02:27:27.488Z,82.68
2022-09-23T02:28:12.539Z,90.78
2022-09-23T02:28:57.593Z,90.78
2022-09-23T02:29:43.312Z,90.78
2022-09-23T02:30:27.714Z,90.78
2022-09-23T02:31:12.768Z,89.81
2022-09-23T02:31:58.229Z,84.82
2022-09-23T02:32:43.190Z,94.83
2022-09-23T02:33:28.034Z,84.85
2022-09-23T02:34:13.092Z,87.85
2022-09-23T02:34:58.455Z,87.85
2022-09-23T02:35:42.904Z,96.83
2022-09-23T02:36:28.468Z,94.83
2022-09-23T02:37:13.421Z,92.81
2022-09-23T02:37:58.683Z,92.81
2022-09-23T02:38:43.563Z,93.77
2022-09-23T02:39:28.585Z,98.72
2022-09-23T02:40:13.593Z,106.70
2022-09-23T02:40:58.831Z,105.70
2022-09-23T02:41:43.658Z,112.73
2022-09-23T02:42:29.122Z,106.74
2022-09-23T02:43:13.669Z,103.60
2022-09-23T02:43:58.885Z,99.76
2022-09-23T02:44:43.762Z,98.80
2022-09-23T02:45:29.078Z,96.76
2022-09-23T02:46:14.009Z,93.58
2022-09-23T02:46:58.947Z,112.68
2022-09-23T02:47:44.128Z,101.71
2022-09-23T02:48:29.168Z,99.72
2022-09-23T02:49:14.351Z,102.71
2022-09-23T02:49:59.171Z,90.74
2022-09-23T02:50:44.235Z,101.61
2022-09-23T02:51:29.288Z,99.72
2022-09-23T02:52:14.570Z,69.80
2022-09-23T02:52:59.620Z,102.71
2022-09-23T02:53:44.561Z,80.77
2022-09-23T02:54:29.516Z,77.78
2022-09-23T02:55:14.583Z,65.70
2022-09-23T02:55:59.930Z,67.83
2022-09-23T02:56:44.903Z,85.61
2022-09-23T02:57:29.839Z,146.64
2022-09-23T02:58:14.895Z,138.66
2022-09-23T02:58:59.767Z,109.73
2022-09-23T02:59:45.018Z,131.68
2022-09-23T03:00:29.875Z,136.67
2022-09-23T03:01:15.740Z,122.75
2022-09-23T03:02:00.029Z,107.58
2022-09-23T03:02:45.136Z,110.73
2022-09-23T03:03:30.432Z,124.44
2022-09-23T03:04:15.147Z,134.62
2022-09-23T03:05:00.284Z,134.62
2022-09-23T03:05:45.155Z,213.48
2022-09-23T03:06:31.082Z,208.06
2022-09-23T03:07:15.373Z,213.48
2022-09-23T03:08:00.421Z,201.51
2022-09-23T03:08:45.580Z,193.60
2022-09-23T03:09:30.719Z,207.49
2022-09-23T03:10:15.591Z,206.50
2022-09-23T03:11:00.652Z,78.81
2022-09-23T03:11:45.504Z,77.84
2022-09-23T03:12:30.606Z,77.84
2022-09-23T03:13:15.644Z,77.84
2022-09-23T03:14:00.685Z,83.83
2022-09-23T03:14:45.569Z,82.80
2022-09-23T03:15:30.791Z,83.80
2022-09-23T03:16:16.519Z,79.81
2022-09-23T03:17:01.105Z,77.84
2022-09-23T03:17:45.956Z,79.83
2022-09-23T03:18:31.367Z,81.83
2022-09-23T03:19:16.170Z,105.78
2022-09-23T03:20:01.327Z,106.78
2022-09-23T03:20:46.076Z,99.79
2022-09-23T03:21:31.363Z,102.79
2022-09-23T03:22:16.116Z,103.82
2022-09-23T03:23:01.556Z,98.83
2022-09-23T03:23:46.644Z,103.78
2022-09-23T03:24:31.976Z,99.79
2022-09-23T03:25:16.514Z,101.79
2022-09-23T03:26:01.674Z,98.80
2022-09-23T03:26:46.940Z,99.79
2022-09-23T03:27:31.928Z,101.79
2022-09-23T03:28:16.670Z,99.79
2022-09-23T03:29:02.210Z,106.78
2022-09-23T03:29:47.178Z,102.79
2022-09-23T03:30:32.358Z,102.79
2022-09-23T03:31:17.234Z,95.83
2022-09-23T03:32:02.281Z,94.73
2022-09-23T03:32:47.406Z,90.81
2022-09-23T03:33:32.545Z,90.81
2022-09-23T03:34:17.407Z,96.83
2022-09-23T03:35:02.353Z,89.74
2022-09-23T03:35:47.511Z,92.81
2022-09-23T03:36:32.926Z,73.87
2022-09-23T03:37:17.627Z,72.87
2022-09-23T03:38:03.442Z,76.86
2022-09-23T03:38:47.754Z,79.86
2022-09-23T03:39:32.925Z,79.86
2022-09-23T03:40:18.173Z,73.87
2022-09-23T03:41:03.110Z,72.87
2022-09-23T03:41:48.065Z,76.86
2022-09-23T03:42:33.220Z,80.86
2022-09-23T03:43:18.405Z,75.89
2022-09-23T03:44:03.457Z,76.89
2022-09-23T03:44:48.447Z,69.90
2022-09-23T03:45:33.650Z,76.89
2022-09-23T03:46:18.489Z,72.89
2022-09-23T03:47:03.464Z,72.89
2022-09-23T03:47:48.620Z,73.89
2022-09-23T03:48:33.799Z,73.89
2022-09-23T03:49:18.659Z,78.88
2022-09-23T03:50:03.585Z,70.89
2022-09-23T03:50:48.664Z,74.89
2022-09-23T03:51:33.798Z,75.89
2022-09-23T03:52:18.851Z,70.89
2022-09-23T03:53:04.215Z,70.89
2022-09-23T03:53:50.202Z,70.89
2022-09-23T03:54:34.152Z,76.89
2022-09-23T03:55:19.289Z,73.82
2022-09-23T03:56:04.399Z,45.52
2022-09-23T03:56:49.094Z,82.80
2022-09-23T03:57:34.463Z,75.87
2022-09-23T03:58:19.439Z,76.86
2022-09-23T03:59:04.470Z,89.87
2022-09-23T03:59:49.551Z,101.85
2022-09-23T04:00:34.523Z,106.81
2022-09-23T04:01:19.932Z,106.81
2022-09-23T04:02:04.871Z,105.81
2022-09-23T04:02:49.760Z,124.78
2022-09-23T04:03:34.955Z,124.78
2022-09-23T04:04:19.655Z,110.81
2022-09-23T04:05:04.603Z,97.76
2022-09-23T04:05:49.665Z,104.84
2022-09-23T04:06:35.458Z,104.84
2022-09-23T04:07:19.889Z,105.84
2022-09-23T04:08:04.634Z,105.84
2022-09-23T04:08:49.683Z,105.87
2022-09-23T04:09:35.459Z,110.86
2022-09-23T04:10:20.016Z,106.87
2022-09-23T04:11:04.863Z,99.82
2022-09-23T04:11:50.133Z,100.87
2022-09-23T04:12:35.376Z,98.88
2022-09-23T04:13:20.333Z,97.88
2022-09-23T04:14:05.084Z,96.88
2022-09-23T04:14:50.345Z,102.87
2022-09-23T04:15:35.604Z,99.87
2022-09-23T04:16:20.732Z,99.87
2022-09-23T04:17:05.609Z,103.89
2022-09-23T04:17:50.977Z,96.90
2022-09-23T04:18:35.426Z,102.89
2022-09-23T04:19:20.518Z,97.91
2022-09-23T04:20:05.331Z,102.85
2022-09-23T04:20:50.796Z,101.91
2022-09-23T04:21:35.854Z,98.91
2022-09-23T04:22:20.721Z,97.91
2022-09-23T04:23:05.656Z,100.89
2022-09-23T04:23:50.527Z,100.89
2022-09-23T04:24:36.204Z,105.89
2022-09-23T04:25:21.044Z,105.89
2022-09-23T04:26:06.086Z,106.87
2022-09-23T04:26:51.141Z,109.88
2022-09-23T04:27:37.748Z,108.89
2022-09-23T04:28:21.159Z,109.88
2022-09-23T04:29:06.253Z,104.84
2022-09-23T04:29:51.504Z,108.89
2022-09-23T04:30:36.427Z,108.86
2022-09-23T04:31:21.460Z,100.91
2022-09-23T04:32:06.329Z,101.91
2022-09-23T04:32:51.404Z,102.91
2022-09-23T04:33:36.759Z,103.91
2022-09-23T04:34:21.713Z,105.91
2022-09-23T04:35:06.782Z,106.91
2022-09-23T04:35:51.614Z,90.92
2022-09-23T04:36:37.385Z,90.92
2022-09-23T04:37:21.622Z,101.87
2022-09-23T04:38:06.989Z,98.91
2022-09-23T04:38:53.994Z,135.83
2022-09-23T04:39:37.226Z,103.87
2022-09-23T04:40:22.227Z,102.91
2022-09-23T04:41:07.827Z,107.92
2022-09-23T04:41:52.168Z,106.92
2022-09-23T04:42:37.329Z,105.92
2022-09-23T04:43:22.285Z,103.94
2022-09-23T04:44:07.319Z,105.91
2022-09-23T04:44:52.293Z,102.94
2022-09-23T04:45:37.447Z,102.91
2022-09-23T04:46:22.355Z,102.94
2022-09-23T04:47:07.868Z,103.89
2022-09-23T04:47:52.763Z,105.92
2022-09-23T04:48:37.667Z,100.91
2022-09-23T04:49:22.440Z,95.92
2022-09-23T04:50:07.799Z,87.92
2022-09-23T04:50:53.278Z,85.92
2022-09-23T04:51:38.005Z,82.93
2022-09-23T04:52:25.213Z,82.93
2022-09-23T04:53:07.716Z,98.88
2022-09-23T04:53:52.867Z,94.92
2022-09-23T04:54:38.131Z,94.92
2022-09-23T04:55:23.102Z,85.94
2022-09-23T04:56:08.032Z,82.95
2022-09-23T04:56:53.191Z,94.93
2022-09-23T04:57:38.462Z,88.93
2022-09-23T04:58:23.211Z,91.93
2022-09-23T04:59:08.406Z,91.93
2022-09-23T04:59:53.423Z,91.93
2022-09-23T05:00:39.659Z,91.93
2022-09-23T05:01:24.911Z,91.93
2022-09-23T05:02:08.667Z,84.95
2022-09-23T05:02:53.643Z,88.93
2022-09-23T05:03:38.514Z,88.93
2022-09-23T05:04:23.661Z,85.96
2022-09-23T05:05:08.409Z,76.96
2022-09-23T05:05:54.176Z,76.96
2022-09-23T05:06:38.720Z,76.96
2022-09-23T05:07:23.581Z,87.95
2022-09-23T05:08:08.961Z,87.95
2022-09-23T05:08:53.696Z,88.95
2022-09-23T05:09:38.850Z,88.95
2022-09-23T05:10:24.266Z,88.95
2022-09-23T05:11:08.854Z,85.95
2022-09-23T05:11:54.532Z,91.94
2022-09-23T05:12:39.275Z,81.95
2022-09-23T05:13:24.333Z,89.93
2022-09-23T05:14:09.488Z,91.93
2022-09-23T05:14:54.343Z,82.95
2022-09-23T05:15:39.231Z,89.94
2022-09-23T05:16:24.286Z,89.94
2022-09-23T05:17:09.512Z,89.94
2022-09-23T05:17:54.678Z,89.94
2022-09-23T05:18:39.781Z,89.94
2022-09-23T05:19:24.524Z,82.95
2022-09-23T05:20:09.839Z,82.95
2022-09-23T05:20:54.279Z,87.95
2022-09-23T05:21:39.853Z,87.95
2022-09-23T05:22:30.233Z,4.99
2022-09-23T05:23:09.961Z,4.99
2022-09-23T05:23:55.550Z,4.99
2022-09-23T05:24:44.907Z,34.97
2022-09-23T05:25:30.048Z,34.97
2022-09-23T05:26:14.911Z,34.97
2022-09-23T05:26:55.554Z,26.97
2022-09-23T05:27:39.584Z,48.90
2022-09-23T05:28:30.064Z,48.96
2022-09-23T05:29:15.144Z,48.96
2022-09-23T05:30:00.287Z,48.96
2022-09-23T05:30:45.156Z,48.95
2022-09-23T05:31:30.545Z,48.96
2022-09-23T05:32:15.350Z,48.96
2022-09-23T05:33:00.541Z,48.96
2022-09-23T05:33:45.353Z,48.96
2022-09-23T05:34:30.883Z,48.96
2022-09-23T05:35:15.575Z,48.96
2022-09-23T05:36:00.739Z,48.96
2022-09-23T05:36:45.712Z,48.96
2022-09-23T05:37:31.075Z,48.96
2022-09-23T05:38:15.931Z,48.96
2022-09-23T05:39:00.965Z,48.96
2022-09-23T05:39:46.021Z,48.96
2022-09-23T05:40:31.751Z,48.96
2022-09-23T05:41:16.550Z,48.96
2022-09-23T05:42:01.316Z,48.96
2022-09-23T05:42:47.161Z,48.95
2022-09-23T05:43:32.020Z,48.96
2022-09-23T05:44:16.765Z,48.97
2022-09-23T05:45:01.725Z,48.97
2022-09-23T05:45:46.678Z,48.97
2022-09-23T05:46:32.410Z,48.97
2022-09-23T05:47:17.090Z,48.97
2022-09-23T05:48:02.044Z,48.96
2022-09-23T05:48:47.103Z,48.95
2022-09-23T05:49:48.630Z,48.96
2022-09-23T05:50:11.938Z,48.96
2022-09-23T05:51:02.484Z,26.98
2022-09-23T05:51:47.638Z,26.98
2022-09-23T05:52:32.704Z,26.98
2022-09-23T05:53:17.542Z,26.98
2022-09-23T05:54:02.604Z,26.98
2022-09-23T05:54:47.871Z,26.98
2022-09-23T05:55:32.622Z,26.98
2022-09-23T05:56:17.994Z,26.98
2022-09-23T05:57:04.928Z,26.98
2022-09-23T05:57:47.779Z,26.98
2022-09-23T05:58:33.157Z,26.98
2022-09-23T05:59:17.895Z,26.98
2022-09-23T06:00:03.053Z,26.98
2022-09-23T06:00:48.111Z,26.98
2022-09-23T06:01:33.250Z,26.98
2022-09-23T06:02:18.249Z,26.99
2022-09-23T06:03:03.328Z,26.99
2022-09-23T06:03:48.132Z,26.99
2022-09-23T06:04:33.255Z,26.99
2022-09-23T06:05:18.345Z,26.99
2022-09-23T06:06:03.435Z,26.99
2022-09-23T06:06:48.389Z,26.99
2022-09-23T06:07:33.552Z,26.99
2022-09-23T06:08:20.134Z,26.99
2022-09-23T06:09:03.661Z,26.99
2022-09-23T06:09:48.322Z,26.99
2022-09-23T06:10:33.652Z,26.97
2022-09-23T06:11:13.471Z,26.97
2022-09-23T06:12:03.249Z,28.98
2022-09-23T06:12:48.604Z,28.97
2022-09-23T06:13:33.656Z,28.98
2022-09-23T06:14:18.824Z,28.98
2022-09-23T06:15:03.981Z,28.98
2022-09-23T06:15:49.335Z,28.98
2022-09-23T06:16:34.079Z,28.98
2022-09-23T06:17:18.861Z,28.97
2022-09-23T06:18:04.046Z,28.99
2022-09-23T06:18:48.901Z,28.99
2022-09-23T06:19:34.322Z,28.99
2022-09-23T06:20:19.269Z,28.99
2022-09-23T06:21:04.227Z,28.99
2022-09-23T06:21:49.278Z,28.99
2022-09-23T06:22:37.169Z,28.99
2022-09-23T06:23:20.533Z,28.99
2022-09-23T06:24:04.638Z,28.99
2022-09-23T06:24:49.506Z,28.99
2022-09-23T06:25:34.498Z,28.99
2022-09-23T06:26:19.530Z,28.98
2022-09-23T06:27:04.467Z,28.99
2022-09-23T06:27:49.711Z,28.99
2022-09-23T06:28:34.685Z,28.99
2022-09-23T06:29:19.635Z,28.99
2022-09-23T06:30:04.821Z,28.99
2022-09-23T06:30:49.762Z,28.99
2022-09-23T06:31:34.848Z,28.99
2022-09-23T06:32:19.663Z,28.99
2022-09-23T06:33:05.127Z,28.99
2022-09-23T06:33:50.579Z,28.99
2022-09-23T06:34:44.549Z,28.98
2022-09-23T06:35:26.318Z,28.98
2022-09-23T06:36:05.459Z,28.98
2022-09-23T06:36:50.119Z,28.98
2022-09-23T06:37:35.279Z,28.99
2022-09-23T06:38:20.460Z,28.99
2022-09-23T06:39:05.470Z,28.99
2022-09-23T06:39:50.443Z,28.99
2022-09-23T06:40:36.137Z,28.99
2022-09-23T06:41:20.230Z,28.99
2022-09-23T06:42:05.415Z,28.99
2022-09-23T06:42:52.336Z,28.99
2022-09-23T06:43:35.917Z,28.99
2022-09-23T06:44:20.812Z,28.99
2022-09-23T06:45:05.828Z,28.99
2022-09-23T06:45:50.884Z,28.99
2022-09-23T06:46:36.286Z,28.99
2022-09-23T06:47:21.506Z,28.99
2022-09-23T06:48:06.053Z,28.98
2022-09-23T06:48:51.003Z,28.99
2022-09-23T06:49:36.057Z,28.99
2022-09-23T06:50:21.010Z,28.99
2022-09-23T06:51:06.276Z,28.98
2022-09-23T06:51:51.334Z,28.98
2022-09-23T06:52:36.592Z,28.98
2022-09-23T06:53:21.142Z,28.99
2022-09-23T06:54:06.432Z,28.99
2022-09-23T06:54:51.559Z,28.99
2022-09-23T06:55:36.645Z,28.98
2022-09-23T06:56:21.473Z,28.97
2022-09-23T06:57:01.199Z,28.97
2022-09-23T06:57:51.676Z,43.98
2022-09-23T06:58:36.790Z,43.97
2022-09-23T06:59:21.497Z,43.97
2022-09-23T07:00:06.956Z,43.98
2022-09-23T07:00:51.903Z,43.98
2022-09-23T07:01:37.111Z,43.98
2022-09-23T07:02:22.019Z,43.98
2022-09-23T07:03:07.115Z,43.98
2022-09-23T07:03:52.234Z,43.98
2022-09-23T07:04:37.490Z,43.98
2022-09-23T07:05:22.955Z,43.97
2022-09-23T07:06:07.198Z,43.98
2022-09-23T07:06:52.149Z,43.98
2022-09-23T07:07:37.309Z,43.98
2022-09-23T07:08:24.230Z,43.98
2022-09-23T07:09:07.559Z,43.98
2022-09-23T07:09:52.576Z,43.98
2022-09-23T07:10:37.634Z,43.98
2022-09-23T07:11:22.826Z,43.98
2022-09-23T07:12:07.648Z,43.98
2022-09-23T07:12:52.508Z,43.98
2022-09-23T07:13:37.966Z,43.98
2022-09-23T07:14:22.919Z,43.98
2022-09-23T07:15:07.978Z,43.98
2022-09-23T07:15:52.996Z,43.98
2022-09-23T07:16:38.467Z,43.97
2022-09-23T07:17:22.939Z,43.98
2022-09-23T07:18:08.032Z,43.98
2022-09-23T07:18:53.258Z,43.98
2022-09-23T07:19:38.937Z,43.98
2022-09-23T07:20:22.957Z,43.97
2022-09-23T07:21:08.224Z,43.98
2022-09-23T07:21:53.178Z,43.98
2022-09-23T07:22:38.345Z,43.98
2022-09-23T07:23:23.393Z,43.98
2022-09-23T07:24:08.453Z,43.97
2022-09-23T07:24:53.510Z,43.92
2022-09-23T07:25:33.397Z,43.92
2022-09-23T07:26:23.988Z,29.98
2022-09-23T07:27:03.242Z,29.98
2022-09-23T07:27:53.631Z,57.96
2022-09-23T07:28:38.805Z,57.95
2022-09-23T07:29:23.838Z,57.97
2022-09-23T07:30:18.381Z,57.97
2022-09-23T07:30:59.256Z,57.97
2022-09-23T07:31:39.917Z,57.97
2022-09-23T07:32:24.240Z,57.96
2022-09-23T07:33:23.459Z,57.95
2022-09-23T07:33:54.079Z,57.96
2022-09-23T07:34:39.439Z,57.97
2022-09-23T07:35:24.095Z,57.86
2022-09-23T07:36:09.152Z,57.97
2022-09-23T07:36:49.099Z,57.97
2022-09-23T07:37:39.256Z,32.98
2022-09-23T07:38:24.325Z,32.98
2022-09-23T07:39:09.300Z,32.98
2022-09-23T07:39:55.144Z,32.98
2022-09-23T07:40:40.060Z,32.98
2022-09-23T07:41:24.747Z,32.98
2022-09-23T07:42:09.697Z,32.98
2022-09-23T07:42:54.498Z,32.98
2022-09-23T07:43:39.908Z,32.98
2022-09-23T07:44:24.908Z,32.98
2022-09-23T07:45:09.729Z,32.98
2022-09-23T07:45:54.891Z,32.98
2022-09-23T07:46:39.793Z,32.97
2022-09-23T07:47:25.619Z,32.98
2022-09-23T07:48:09.846Z,32.98
2022-09-23T07:48:54.998Z,32.98
2022-09-23T07:49:39.647Z,32.98
2022-09-23T07:50:25.013Z,32.98
2022-09-23T07:51:09.962Z,32.98
2022-09-23T07:51:55.028Z,32.98
2022-09-23T07:52:40.184Z,32.98
2022-09-23T07:53:24.940Z,32.98
2022-09-23T07:54:10.145Z,32.98
2022-09-23T07:54:54.746Z,32.97
2022-09-23T07:55:40.031Z,32.98
2022-09-23T07:56:25.157Z,32.98
2022-09-23T07:57:09.705Z,32.98
2022-09-23T07:57:55.096Z,32.98
2022-09-23T07:58:39.917Z,32.98
2022-09-23T07:59:24.863Z,32.98
2022-09-23T08:00:10.040Z,32.98
2022-09-23T08:00:55.088Z,32.97
2022-09-23T08:01:40.623Z,32.98
2022-09-23T08:02:25.262Z,32.97
2022-09-23T08:03:10.316Z,32.98
2022-09-23T08:03:50.027Z,32.98
2022-09-23T08:04:40.269Z,16.99
2022-09-23T08:05:25.320Z,16.99
2022-09-23T08:06:10.379Z,16.99
2022-09-23T08:06:55.741Z,16.99
2022-09-23T08:07:40.511Z,16.99
2022-09-23T08:08:27.320Z,16.99
2022-09-23T08:09:11.333Z,16.99
2022-09-23T08:09:55.663Z,16.99
2022-09-23T08:10:41.227Z,16.99
2022-09-23T08:11:26.589Z,16.99
2022-09-23T08:12:15.206Z,16.99
2022-09-23T08:12:56.166Z,16.99
2022-09-23T08:13:41.146Z,16.99
2022-09-23T08:14:26.426Z,16.99
2022-09-23T08:15:11.380Z,16.99
2022-09-23T08:15:56.481Z,16.99
2022-09-23T08:16:41.378Z,16.99
2022-09-23T08:17:26.548Z,16.99
2022-09-23T08:18:11.480Z,16.99
2022-09-23T08:18:56.709Z,16.99
2022-09-23T08:19:41.396Z,16.99
2022-09-23T08:20:26.751Z,16.99
2022-09-23T08:21:12.018Z,16.99
2022-09-23T08:21:56.938Z,16.99
2022-09-23T08:22:41.514Z,16.99
2022-09-23T08:23:26.880Z,16.99
2022-09-23T08:24:12.258Z,16.99
2022-09-23T08:24:57.004Z,16.99
2022-09-23T08:25:44.309Z,16.99
2022-09-23T08:26:27.203Z,16.99
2022-09-23T08:27:12.161Z,16.99
2022-09-23T08:27:57.163Z,16.99
2022-09-23T08:28:41.860Z,16.99
2022-09-23T08:29:27.326Z,16.99
2022-09-23T08:30:12.236Z,16.99
2022-09-23T08:30:58.185Z,16.99
2022-09-23T08:31:42.710Z,16.98
2022-09-23T08:32:27.556Z,16.99
2022-09-23T08:33:12.644Z,16.99
2022-09-23T08:33:57.462Z,16.98
2022-09-23T08:34:42.929Z,16.99
2022-09-23T08:35:27.676Z,16.98
2022-09-23T08:36:12.916Z,16.99
2022-09-23T08:36:57.793Z,16.99
2022-09-23T08:37:43.164Z,16.99
2022-09-23T08:38:30.921Z,16.99
2022-09-23T08:39:13.669Z,16.99
2022-09-23T08:39:58.119Z,16.99
2022-09-23T08:40:43.067Z,16.99
2022-09-23T08:41:28.445Z,16.99
2022-09-23T08:42:13.438Z,16.99
2022-09-23T08:42:58.550Z,16.99
2022-09-23T08:43:43.504Z,16.99
2022-09-23T08:44:28.562Z,16.99
2022-09-23T08:45:13.577Z,16.99
2022-09-23T08:45:58.483Z,16.99
2022-09-23T08:46:43.527Z,16.99
2022-09-23T08:47:28.579Z,16.99
2022-09-23T08:48:13.841Z,16.99
2022-09-23T08:48:58.929Z,16.99
2022-09-23T08:49:43.644Z,16.99
2022-09-23T08:50:28.617Z,16.99
2022-09-23T08:51:14.176Z,16.99
2022-09-23T08:51:59.022Z,16.99
2022-09-23T08:52:44.133Z,16.99
2022-09-23T08:53:28.932Z,16.99
2022-09-23T08:54:14.194Z,16.99
2022-09-23T08:54:59.194Z,16.99
2022-09-23T08:55:44.508Z,16.99
2022-09-23T08:56:29.395Z,16.99
2022-09-23T08:57:14.215Z,16.99
2022-09-23T08:58:20.889Z,16.99
2022-09-23T08:58:44.673Z,16.99
2022-09-23T08:59:29.585Z,16.99
2022-09-23T09:00:14.544Z,16.99
2022-09-23T09:00:59.906Z,16.99
2022-09-23T09:01:44.734Z,16.99
2022-09-23T09:02:29.964Z,16.93
2022-09-23T09:03:14.247Z,16.99
2022-09-23T09:03:59.518Z,16.99
2022-09-23T09:04:44.945Z,16.99
2022-09-23T09:05:29.837Z,16.99
2022-09-23T09:06:15.003Z,16.99
2022-09-23T09:07:12.459Z,16.99
2022-09-23T09:07:45.320Z,16.98
2022-09-23T09:08:30.363Z,16.98
2022-09-23T09:09:14.914Z,16.98
2022-09-23T09:09:59.861Z,16.98
2022-09-23T09:10:45.532Z,16.98
2022-09-23T09:11:32.071Z,16.98
2022-09-23T09:12:16.318Z,16.98
2022-09-23T09:12:56.687Z,16.98
2022-09-23T09:13:40.297Z,85.87
2022-09-23T09:14:25.945Z,85.92
2022-09-23T09:15:10.203Z,73.93
2022-09-23T09:15:55.571Z,85.89
2022-09-23T09:17:26.079Z,33.45
2022-09-23T09:18:10.851Z,65.01
2022-09-23T09:18:55.467Z,82.94
2022-09-23T09:19:41.099Z,83.94
2022-09-23T09:20:25.768Z,76.94
2022-09-23T09:21:11.151Z,95.88
2022-09-23T09:21:55.654Z,89.93
2022-09-23T09:22:40.887Z,89.93
2022-09-23T09:23:26.315Z,96.93
2022-09-23T09:24:11.268Z,94.93
2022-09-23T09:24:56.253Z,82.94
2022-09-23T09:25:41.872Z,82.94
2022-09-23T09:26:26.453Z,83.94
2022-09-23T09:27:11.390Z,83.94
2022-09-23T09:27:56.340Z,31.27
2022-09-23T09:28:41.586Z,41.29
2022-09-23T09:29:35.334Z,39.02
2022-09-23T09:30:11.657Z,42.41
2022-09-23T09:30:58.154Z,42.41
2022-09-23T09:31:41.644Z,37.94
2022-09-23T09:32:27.004Z,71.96
2022-09-23T09:33:11.777Z,71.96
2022-09-23T09:33:57.001Z,77.95
2022-09-23T09:34:41.845Z,75.95
2022-09-23T09:35:27.015Z,38.38
2022-09-23T09:36:11.966Z,78.95
2022-09-23T09:36:57.023Z,37.81
2022-09-23T09:37:42.092Z,29.54
2022-09-23T09:38:27.329Z,29.54